Time;durP1;ratioP1;P1;durP2;ratioP2;P2;SDS_P1;SDS_P2;PMS_P1;PMS_P2;Temp;Humidity;BMP_temperature;BMP_pressure;BME280_temperature;BME280_humidity;BME280_pressure;Samples;Min_cycle;Max_cycle;Signal;HPM_P1;HPM_P2
2021/01/16 00:01:06;;;;;;;12.78;7.87;;;;;;;-6.63;59.32;98829.42;1725454;81;21554;-42
2021/01/16 00:03:34;;;;;;;13.75;7.50;;;;;;;-6.64;59.38;98831.28;1750118;82;21164;-42
2021/01/16 00:06:05;;;;;;;9.28;5.15;;;;;;;-6.61;59.17;98828.64;1769008;79;21392;-42
2021/01/16 00:08:34;;;;;;;12.10;7.42;;;;;;;-6.62;59.05;98829.17;1770228;78;21166;-43
2021/01/16 00:11:03;;;;;;;10.08;6.10;;;;;;;-6.63;59.24;98832.05;1765642;80;21503;-42
2021/01/16 00:13:34;;;;;;;12.70;6.97;;;;;;;-6.54;59.06;98828.41;1721791;81;21186;-42
2021/01/16 00:16:05;;;;;;;11.73;6.92;;;;;;;-6.54;58.59;98827.09;1739572;82;21095;-42
2021/01/16 00:18:33;;;;;;;12.13;7.17;;;;;;;-6.58;58.72;98826.03;1766330;80;21196;-42
2021/01/16 00:21:03;;;;;;;10.30;6.95;;;;;;;-6.60;58.74;98823.64;1771842;79;21174;-42
2021/01/16 00:23:33;;;;;;;13.78;6.92;;;;;;;-6.65;58.96;98831.53;1769456;79;20976;-42
2021/01/16 00:26:01;;;;;;;;;;;;;;;-6.66;58.98;98832.59;1772918;79;21048;-42
2021/01/16 00:28:31;;;;;;;11.85;6.72;;;;;;;-6.69;59.36;98831.27;1775393;79;20199;-42
2021/01/16 00:31:00;;;;;;;11.18;6.50;;;;;;;-6.66;59.60;98824.67;1773347;79;21201;-43
2021/01/16 00:33:30;;;;;;;14.87;8.05;;;;;;;-6.49;59.55;98829.20;1762518;79;21677;-42
2021/01/16 00:35:59;;;;;;;15.75;7.17;;;;;;;-6.34;59.32;98828.44;1749416;79;21420;-42
2021/01/16 00:38:29;;;;;;;13.25;6.92;;;;;;;-6.29;59.42;98837.64;1774744;79;21126;-41
2021/01/16 00:40:57;;;;;;;7.53;5.15;;;;;;;-6.23;59.52;98837.92;1775165;79;21134;-43
2021/01/16 00:43:26;;;;;;;15.53;7.50;;;;;;;-6.13;59.96;98833.17;1778515;79;21382;-42
2021/01/16 00:45:54;;;;;;;13.98;7.72;;;;;;;-5.99;59.75;98830.27;1780907;80;21415;-42
2021/01/16 00:48:24;;;;;;;14.45;7.67;;;;;;;-5.86;59.45;98831.05;1773386;79;21602;-42
2021/01/16 00:50:55;;;;;;;13.43;7.60;;;;;;;-6.19;59.17;98765.91;1772779;79;20973;-42
2021/01/16 00:53:25;;;;;;;19.25;7.80;;;;;;;-5.81;58.80;98830.49;1770447;79;21608;-42
2021/01/16 00:55:56;;;;;;;12.85;7.83;;;;;;;-5.78;58.81;98823.91;1770749;79;21008;-42
2021/01/16 00:58:29;;;;;;;11.97;7.60;;;;;;;-5.71;58.43;98830.48;1758479;79;20985;-43
2021/01/16 01:00:56;;;;;;;12.47;7.10;;;;;;;-5.61;58.20;98828.88;1765289;79;21037;-42
2021/01/16 01:03:27;;;;;;;11.93;7.70;;;;;;;-5.52;57.78;98831.27;1752349;79;21171;-42
2021/01/16 01:05:56;;;;;;;12.65;7.05;;;;;;;-5.41;57.52;98824.88;1767311;79;21155;-42
2021/01/16 01:08:28;;;;;;;11.73;7.40;;;;;;;-5.32;57.27;98827.23;1747536;80;21384;-42
2021/01/16 01:10:57;;;;;;;12.93;7.60;;;;;;;-5.24;56.88;98822.73;1777640;79;21138;-42
2021/01/16 01:13:26;;;;;;;14.40;8.43;;;;;;;-5.20;56.84;98818.48;1743293;80;21174;-42
2021/01/16 01:15:54;;;;;;;16.62;8.33;;;;;;;-5.21;56.21;98826.15;1684325;85;21038;-42
2021/01/16 01:18:22;;;;;;;15.50;8.05;;;;;;;-5.42;56.20;98832.02;1715869;82;21647;-42
2021/01/16 01:20:51;;;;;;;16.30;8.60;;;;;;;-5.59;55.97;98830.73;1792898;79;21378;-42
2021/01/16 01:23:19;;;;;;;15.93;8.98;;;;;;;-5.74;55.92;98845.55;1771719;79;21159;-42
2021/01/16 01:25:47;;;;;;;16.87;8.88;;;;;;;-5.92;55.99;98846.12;1772995;79;21158;-42
2021/01/16 01:28:15;;;;;;;16.15;9.13;;;;;;;-6.04;55.90;98841.63;1773400;79;21163;-42
2021/01/16 01:30:43;;;;;;;13.55;8.63;;;;;;;-6.22;56.01;98843.47;1775515;78;21184;-42
2021/01/16 01:33:16;;;;;;;10.82;6.45;;;;;;;-6.29;55.60;98846.88;1774812;79;21198;-42
2021/01/16 01:35:47;;;;;;;14.23;8.23;;;;;;;-6.46;55.64;98855.56;1797399;78;21388;-42
2021/01/16 01:38:18;;;;;;;12.13;7.22;;;;;;;-6.55;55.65;98854.50;1794672;79;21135;-42
2021/01/16 01:40:50;;;;;;;14.05;8.35;;;;;;;-6.55;54.71;98869.00;1791640;79;21107;-42
2021/01/16 01:43:19;;;;;;;13.88;7.60;;;;;;;-6.55;54.71;98869.00;1738010;82;21147;-42
2021/01/16 01:45:49;;;;;;;16.23;7.58;;;;;;;-6.59;54.65;98868.73;1750589;80;21051;-42
2021/01/16 01:48:17;;;;;;;13.55;7.22;;;;;;;-6.59;54.65;98868.73;1712646;82;21163;-42
2021/01/16 01:50:45;;;;;;;15.53;7.47;;;;;;;-6.61;53.78;98871.62;1771611;79;21633;-42
2021/01/16 01:53:14;;;;;;;12.40;7.40;;;;;;;-6.69;53.57;98872.13;1786154;79;20988;-42
2021/01/16 01:55:44;;;;;;;12.58;7.42;;;;;;;-6.79;52.97;98872.09;1782402;78;21433;-42
2021/01/16 01:58:14;;;;;;;13.20;7.15;;;;;;;-6.88;52.48;98869.69;1714851;82;21221;-43
2021/01/16 02:00:42;;;;;;;13.32;7.30;;;;;;;-6.93;52.18;98876.78;1761205;80;21170;-42
2021/01/16 02:03:11;;;;;;;11.83;7.05;;;;;;;-6.96;51.73;98879.39;1736737;82;21179;-42
2021/01/16 02:05:40;;;;;;;12.55;6.70;;;;;;;-6.98;51.43;98882.83;1738301;82;21119;-43
2021/01/16 02:08:08;;;;;;;12.00;7.30;;;;;;;-7.03;51.54;98877.53;1738357;80;21127;-42
2021/01/16 02:10:37;;;;;;;12.68;7.22;;;;;;;-7.04;51.07;98885.95;1754921;80;21207;-42
2021/01/16 02:13:05;;;;;;;13.43;6.75;;;;;;;-7.06;50.89;98889.36;1738499;80;21115;-43
2021/01/16 02:15:51;;;;;;;11.43;6.85;;;;;;;-7.12;50.87;98884.34;1727323;80;21586;-42
2021/01/16 02:18:30;;;;;;;13.10;7.65;;;;;;;-7.16;50.76;98881.92;1746988;80;21107;-43
2021/01/16 02:21:01;;;;;;;12.40;7.07;;;;;;;-7.17;51.10;98884.31;1737993;82;21179;-43
2021/01/16 02:23:32;;;;;;;11.35;7.42;;;;;;;-7.27;51.14;98889.52;1794772;78;21201;-42
2021/01/16 02:26:21;;;;;;;12.68;7.08;;;;;;;-7.30;51.08;98888.70;1788234;78;21154;-42
2021/01/16 02:28:56;;;;;;;12.82;6.87;;;;;;;-7.30;50.93;98895.28;1750740;80;21136;-42
2021/01/16 02:31:35;;;;;;;13.40;7.47;;;;;;;-7.34;50.65;98892.89;1776357;78;21452;-42
2021/01/16 02:34:05;;;;;;;;;;;;;;;-7.54;50.62;98896.19;1786346;79;21133;-42
2021/01/16 02:37:07;;;;;;;14.87;7.60;;;;;;;-7.69;50.70;98898.19;1796898;78;21216;-43
2021/01/16 02:39:43;;;;;;;13.65;7.00;;;;;;;-7.86;50.80;98910.69;1745726;81;21163;-43
2021/01/16 02:42:22;;;;;;;14.68;7.05;;;;;;;-8.09;51.13;98911.02;1730040;82;21163;-43
2021/01/16 02:44:59;;;;;;;13.03;7.00;;;;;;;-8.20;51.26;98908.02;1735304;81;21166;-43
2021/01/16 02:47:47;;;;;;;12.82;7.60;;;;;;;-8.24;51.61;98908.24;1784981;78;21585;-44
2021/01/16 02:50:21;;;;;;;13.03;7.37;;;;;;;-8.22;51.42;98910.09;1807432;78;21282;-43
2021/01/16 02:52:50;;;;;;;13.25;7.35;;;;;;;-8.20;51.16;98920.64;1766114;80;21172;-43
2021/01/16 02:55:18;;;;;;;10.78;6.00;;;;;;;-8.25;50.97;98919.80;1786293;78;21542;-43
2021/01/16 02:57:47;;;;;;;14.20;7.47;;;;;;;-8.37;50.85;98915.50;1791637;78;21016;-44
2021/01/16 03:00:19;;;;;;;15.53;7.60;;;;;;;-8.43;51.24;98919.66;1789856;78;21189;-43
2021/01/16 03:02:47;;;;;;;14.33;7.65;;;;;;;-8.39;51.35;98909.72;1788377;78;21355;-44
2021/01/16 03:05:17;;;;;;;14.85;7.22;;;;;;;-8.39;51.34;98918.11;1788392;79;21056;-43
2021/01/16 03:07:47;;;;;;;12.20;7.03;;;;;;;-8.26;50.87;98914.26;1798618;78;21051;-44
2021/01/16 03:10:16;;;;;;;15.98;6.75;;;;;;;-8.28;50.78;98921.62;1774766;80;21621;-44
2021/01/16 03:12:44;;;;;;;12.15;6.85;;;;;;;-8.39;50.19;98916.80;1756562;80;22032;-43
2021/01/16 03:15:17;;;;;;;12.63;6.92;;;;;;;-8.59;50.57;98915.27;1756507;80;22227;-44
2021/01/16 03:17:54;;;;;;;15.13;7.80;;;;;;;-8.73;50.38;98917.48;1810874;79;21158;-43
2021/01/16 03:20:30;;;;;;;12.63;6.42;;;;;;;-8.92;50.69;98916.20;1796672;78;21588;-44
2021/01/16 03:23:01;;;;;;;14.53;7.58;;;;;;;-9.04;50.96;98928.11;1768695;79;21019;-43
2021/01/16 03:25:31;;;;;;;11.22;7.20;;;;;;;-9.14;50.92;98919.30;1781615;79;21138;-43
2021/01/16 03:28:01;;;;;;;16.95;7.62;;;;;;;-9.30;51.07;98919.13;1780603;79;21306;-44
2021/01/16 03:30:31;;;;;;;;;;;;;;;-9.43;51.16;98933.87;1772825;80;21584;-43
2021/01/16 03:33:01;;;;;;;16.10;7.28;;;;;;;-9.63;51.27;98937.50;1781154;79;20528;-43
2021/01/16 03:35:30;;;;;;;12.25;6.78;;;;;;;-9.82;51.91;98930.38;1770862;79;21118;-43
2021/01/16 03:37:58;;;;;;;13.70;7.17;;;;;;;-9.97;51.75;98941.93;1778780;79;21154;-43
2021/01/16 03:40:27;;;;;;;13.85;6.75;;;;;;;-10.18;52.22;98941.34;1775961;80;21174;-43
2021/01/16 03:42:56;;;;;;;11.35;6.28;;;;;;;-10.34;52.51;98944.20;1771605;79;21075;-43
2021/01/16 03:45:25;;;;;;;13.90;7.30;;;;;;;-10.47;52.88;98939.25;1778442;79;21152;-43
2021/01/16 03:47:54;;;;;;;14.13;8.10;;;;;;;-10.53;53.41;98934.94;1765107;79;21604;-44
2021/01/16 03:50:24;;;;;;;14.23;7.12;;;;;;;-10.53;53.41;98934.94;1777628;79;21170;-43
2021/01/16 03:52:52;;;;;;;13.98;6.87;;;;;;;-10.58;53.18;98932.22;1774100;79;21307;-43
2021/01/16 03:55:20;;;;;;;12.85;6.85;;;;;;;-10.73;53.29;98936.65;1779529;79;21194;-43
2021/01/16 03:57:49;;;;;;;12.37;6.72;;;;;;;-10.82;53.42;98931.50;1780951;80;21171;-42
2021/01/16 04:00:18;;;;;;;12.70;7.55;;;;;;;-10.94;53.62;98927.33;1774532;79;21153;-43
2021/01/16 04:02:46;;;;;;;14.57;6.00;;;;;;;-11.08;53.86;98921.02;1779120;79;21198;-43
2021/01/16 04:05:15;;;;;;;15.65;6.53;;;;;;;-11.17;54.13;98917.16;1756263;79;22500;-43
2021/01/16 04:07:49;;;;;;;17.85;8.23;;;;;;;-11.25;54.36;98925.38;1780782;79;21146;-43
2021/01/16 04:10:17;;;;;;;18.50;7.47;;;;;;;-11.34;54.49;98929.37;1780552;79;21155;-43
2021/01/16 04:12:45;;;;;;;13.68;7.75;;;;;;;-11.38;54.59;98923.00;1759278;79;21193;-42
2021/01/16 04:15:15;;;;;;;13.95;7.35;;;;;;;-11.43;54.64;98917.66;1779577;78;21103;-43
2021/01/16 04:17:43;;;;;;;13.28;7.50;;;;;;;-11.43;54.86;98922.89;1779877;79;21377;-43
2021/01/16 04:20:12;;;;;;;14.93;7.28;;;;;;;-11.38;54.68;98929.55;1780350;79;21209;-42
2021/01/16 04:22:40;;;;;;;13.90;7.50;;;;;;;-11.35;54.52;98936.92;1764222;79;21146;-43
2021/01/16 04:25:09;;;;;;;13.90;6.67;;;;;;;-11.38;54.48;98940.52;1773718;79;21135;-44
2021/01/16 04:27:37;;;;;;;15.93;7.37;;;;;;;-11.41;54.45;98943.06;1772599;79;21143;-43
2021/01/16 04:30:08;;;;;;;23.32;7.35;;;;;;;-11.44;54.48;98947.45;1714330;81;22135;-43
2021/01/16 04:32:37;;;;;;;13.15;7.05;;;;;;;-11.55;54.42;98946.92;1774041;78;21036;-43
2021/01/16 04:35:08;;;;;;;13.72;7.53;;;;;;;-11.64;54.50;98945.67;1777010;78;21557;-43
2021/01/16 04:37:36;;;;;;;16.70;8.13;;;;;;;-11.71;54.64;98949.69;1785190;79;21016;-43
2021/01/16 04:40:07;;;;;;;14.40;7.67;;;;;;;-11.78;54.63;98950.86;1779884;79;21154;-43
2021/01/16 04:42:38;;;;;;;15.18;7.10;;;;;;;-11.88;54.74;98951.91;1778332;78;21210;-43
2021/01/16 04:45:09;;;;;;;14.78;7.90;;;;;;;-11.97;55.00;98962.70;1773590;79;21514;-43
2021/01/16 04:47:37;;;;;;;16.75;8.00;;;;;;;-12.04;55.24;98958.07;1776300;79;21155;-43
2021/01/16 04:50:08;;;;;;;16.32;7.72;;;;;;;-12.05;55.48;98952.55;1737768;79;21129;-43
2021/01/16 04:52:36;;;;;;;18.05;8.15;;;;;;;-12.06;55.54;98956.21;1796239;78;21111;-44
2021/01/16 04:55:09;;;;;;;18.12;8.43;;;;;;;-12.10;55.55;98962.88;1804788;79;22118;-42
2021/01/16 05:00:11;;;;;;;20.52;7.37;;;;;;;-12.16;55.71;98967.70;1766158;79;22729;-45
2021/01/16 05:02:42;;;;;;;22.27;9.07;;;;;;;-12.31;55.76;98973.84;1747230;82;20965;-45
2021/01/16 05:05:12;;;;;;;24.43;8.75;;;;;;;-12.42;55.86;98975.88;1745821;81;21440;-44
2021/01/16 05:07:42;;;;;;;15.32;7.72;;;;;;;-12.42;55.86;98978.50;1745222;82;21032;-45
2021/01/16 05:10:12;;;;;;;17.02;8.00;;;;;;;-12.39;55.46;98987.21;1718364;82;21004;-44
2021/01/16 05:13:06;;;;;;;17.75;7.92;;;;;;;-12.42;54.74;98994.16;1725223;82;21048;-45
2021/01/16 05:15:34;;;;;;;22.00;8.25;;;;;;;-12.43;54.68;98988.64;1740839;82;21092;-45
2021/01/16 05:18:08;;;;;;;17.45;7.33;;;;;;;-12.36;54.21;98995.91;1747686;82;21347;-44
2021/01/16 05:20:38;;;;;;;16.02;8.33;;;;;;;-12.29;53.60;98996.59;1743904;82;21004;-44
2021/01/16 05:23:12;;;;;;;19.77;8.68;;;;;;;-12.21;53.44;99002.04;1732662;82;21055;-44
2021/01/16 05:25:50;;;;;;;14.65;7.05;;;;;;;-12.12;52.33;99007.24;1737148;82;21163;-45
2021/01/16 05:28:24;;;;;;;14.65;7.17;;;;;;;-12.20;51.85;99008.36;1739707;82;21651;-45
2021/01/16 05:31:01;;;;;;;16.02;7.20;;;;;;;-12.34;51.70;99009.52;1734028;82;21207;-45
2021/01/16 05:33:32;;;;;;;17.85;7.40;;;;;;;-12.45;51.91;98998.53;1722394;82;21597;-44
2021/01/16 05:36:04;;;;;;;16.00;7.45;;;;;;;-12.52;51.33;99005.63;1737169;82;21020;-44
2021/01/16 05:38:39;;;;;;;17.02;6.72;;;;;;;-12.61;51.41;99004.34;1718651;82;21076;-44
2021/01/16 05:41:13;;;;;;;16.10;7.00;;;;;;;-12.79;51.29;99007.26;1727864;82;21481;-45
2021/01/16 05:43:43;;;;;;;14.65;6.25;;;;;;;-12.95;51.53;99010.43;1722240;82;21628;-45
2021/01/16 05:46:14;;;;;;;14.40;6.95;;;;;;;-13.16;51.68;99018.69;1733205;82;22135;-45
2021/01/16 05:48:43;;;;;;;14.00;7.20;;;;;;;-13.30;52.02;99022.42;1718860;82;21179;-44
2021/01/16 05:51:11;;;;;;;13.18;6.08;;;;;;;-13.36;52.23;99025.37;1719944;82;21166;-44
2021/01/16 05:53:39;;;;;;;15.93;6.95;;;;;;;-13.38;52.42;99030.53;1692367;82;21151;-44
2021/01/16 05:56:09;;;;;;;16.07;7.03;;;;;;;-13.38;52.51;99027.42;1693846;83;22223;-44
2021/01/16 05:58:37;;;;;;;15.18;6.33;;;;;;;-13.37;52.42;99036.04;1725967;82;21159;-44
2021/01/16 06:01:07;;;;;;;16.48;7.05;;;;;;;-13.38;52.43;99033.94;1697065;83;21154;-42
2021/01/16 06:03:37;;;;;;;;;;;;;;;-13.41;52.52;99040.89;1708389;84;21589;-42
2021/01/16 06:06:10;;;;;;;15.08;7.15;;;;;;;-13.38;52.72;99042.26;1708237;82;20400;-42
2021/01/16 06:08:52;;;;;;;16.97;7.10;;;;;;;-13.41;52.54;99040.09;1735321;82;21439;-42
2021/01/16 06:11:23;;;;;;;14.35;6.97;;;;;;;-13.39;52.72;99038.85;1723380;82;21203;-42
2021/01/16 06:13:55;;;;;;;18.33;7.30;;;;;;;-13.26;52.48;99049.16;1734990;82;21013;-42
2021/01/16 06:16:26;;;;;;;15.43;7.35;;;;;;;-13.19;52.33;99051.73;1714116;82;21867;-42
2021/01/16 06:18:57;;;;;;;17.60;7.10;;;;;;;-13.20;52.14;99054.03;1705732;82;21143;-42
2021/01/16 06:21:29;;;;;;;17.07;7.58;;;;;;;-13.26;52.10;99058.80;1706062;82;21206;-42
2021/01/16 06:24:03;;;;;;;18.55;8.05;;;;;;;-13.31;52.08;99065.95;1708721;82;21162;-42
2021/01/16 06:26:31;;;;;;;13.38;6.70;;;;;;;-13.34;52.21;99071.61;1704693;82;21187;-42
2021/01/16 06:29:01;;;;;;;18.30;7.47;;;;;;;-13.29;52.05;99090.52;1708517;82;21041;-41
2021/01/16 06:31:31;;;;;;;17.67;8.38;;;;;;;-13.33;52.00;99088.05;1734122;82;21147;-42
2021/01/16 06:34:05;;;;;;;14.33;7.50;;;;;;;-13.41;51.90;99090.93;1730812;82;22062;-43
2021/01/16 06:36:35;;;;;;;15.55;7.00;;;;;;;-13.37;52.19;99088.98;1734370;82;20997;-42
2021/01/16 06:39:07;;;;;;;14.30;6.62;;;;;;;-13.23;52.14;99083.16;1710026;82;21190;-43
2021/01/16 06:41:37;;;;;;;14.70;6.58;;;;;;;-13.17;51.48;99082.82;1704687;84;21622;-42
2021/01/16 06:44:14;;;;;;;17.75;7.00;;;;;;;-13.25;51.51;99089.08;1704499;84;21211;-41
2021/01/16 06:46:47;;;;;;;15.32;7.03;;;;;;;-13.26;51.55;99090.09;1705089;84;21220;-42
2021/01/16 06:49:25;;;;;;;17.57;8.20;;;;;;;-13.22;51.60;99087.88;1701897;84;21584;-42
2021/01/16 06:51:58;;;;;;;17.07;6.85;;;;;;;-13.22;51.56;99097.80;1695541;84;21184;-43
2021/01/16 06:54:36;;;;;;;13.55;6.60;;;;;;;-13.20;51.54;99100.98;1705286;84;21139;-43
2021/01/16 06:57:13;;;;;;;12.78;6.45;;;;;;;-13.22;51.61;99105.62;1704353;84;21143;-42
2021/01/16 06:59:42;;;;;;;16.95;8.20;;;;;;;-13.26;51.63;99102.63;1713370;83;22265;-42
2021/01/16 07:02:35;;;;;;;13.72;6.78;;;;;;;-13.31;51.70;99097.25;1719024;83;25521;-42
2021/01/16 07:05:21;;;;;;;19.15;5.62;;;;;;;-13.29;51.91;99094.44;1718425;83;21597;-43
2021/01/16 07:07:51;;;;;;;15.05;6.95;;;;;;;-13.37;51.94;99095.51;1718621;83;21162;-42
2021/01/16 07:10:29;;;;;;;16.37;6.85;;;;;;;-13.45;51.95;99097.55;1718417;83;21174;-42
2021/01/16 07:12:55;;;;;;;18.57;7.95;;;;;;;-13.45;52.00;99100.16;1718673;83;21648;-42
2021/01/16 07:15:25;;;;;;;14.15;6.58;;;;;;;-13.40;52.06;99104.23;1718727;83;21020;-43
2021/01/16 07:17:54;;;;;;;13.68;7.20;;;;;;;-13.41;51.78;99098.25;1718210;83;21137;-42
2021/01/16 07:20:22;;;;;;;15.60;7.20;;;;;;;-13.45;51.83;99107.98;1718820;83;21048;-42
2021/01/16 07:22:52;;;;;;;15.72;6.65;;;;;;;-13.42;52.02;99108.87;1666576;83;21213;-42
2021/01/16 07:25:21;;;;;;;15.70;6.90;;;;;;;-13.41;51.89;99111.28;1718698;83;22277;-42
2021/01/16 07:27:49;;;;;;;16.30;6.83;;;;;;;-13.44;51.82;99117.41;1718831;83;21617;-43
2021/01/16 07:30:19;;;;;;;17.20;6.97;;;;;;;-13.45;51.82;99111.89;1669841;83;21180;-43
2021/01/16 07:32:52;;;;;;;17.87;6.80;;;;;;;-13.37;52.02;99114.27;1719068;83;28262;-42
2021/01/16 07:35:24;;;;;;;16.23;7.33;;;;;;;-13.27;51.44;99119.31;1718853;83;21147;-42
2021/01/16 07:37:53;;;;;;;12.98;5.72;;;;;;;-13.24;51.66;99124.59;1696456;83;21212;-43
2021/01/16 07:40:26;;;;;;;17.25;6.78;;;;;;;-13.21;51.16;99128.06;1715450;83;21643;-43
2021/01/16 07:42:58;;;;;;;16.57;6.90;;;;;;;-13.21;50.93;99125.99;1718943;83;21613;-43
2021/01/16 07:45:31;;;;;;;13.93;7.03;;;;;;;-13.21;51.01;99140.34;1718827;83;21087;-44
2021/01/16 07:48:04;;;;;;;15.18;7.08;;;;;;;-13.19;51.58;99143.01;1718966;83;21167;-44
2021/01/16 07:50:38;;;;;;;16.80;6.70;;;;;;;-13.04;51.40;99146.59;1718594;83;21202;-44
2021/01/16 07:53:12;;;;;;;14.45;6.67;;;;;;;-12.96;50.80;99152.33;1717879;83;20977;-44
2021/01/16 07:55:45;;;;;;;14.05;6.58;;;;;;;-12.98;50.77;99155.67;1718882;83;21068;-44
2021/01/16 07:58:39;;;;;;;15.05;6.40;;;;;;;-12.99;50.69;99147.55;1718837;83;21121;-44
2021/01/16 08:01:46;;;;;;;12.40;5.67;;;;;;;-12.87;50.46;99147.13;1702259;83;21152;-43
2021/01/16 08:04:27;;;;;;;14.98;6.33;;;;;;;-12.75;49.89;99151.16;1690229;84;22289;-44
2021/01/16 08:07:08;;;;;;;11.75;6.05;;;;;;;-12.72;49.60;99156.45;1701646;83;21044;-44
2021/01/16 08:09:58;;;;;;;14.07;6.85;;;;;;;-12.77;49.75;99164.42;1718945;83;21558;-44
2021/01/16 08:12:27;;;;;;;15.25;6.58;;;;;;;-12.73;50.05;99162.70;1714350;83;21033;-44
2021/01/16 08:14:55;;;;;;;;;;;;;;;-12.51;49.53;99166.00;1721246;83;21135;-44
2021/01/16 08:17:34;;;;;;;13.68;5.90;;;;;;;-12.44;49.18;99172.48;1692347;83;21201;-44
2021/01/16 08:20:19;;;;;;;14.70;6.85;;;;;;;-12.50;48.95;99166.80;1718445;83;21643;-43
2021/01/16 08:22:52;;;;;;;11.83;6.33;;;;;;;-12.47;49.00;99166.36;1718428;83;21028;-44
2021/01/16 08:25:26;;;;;;;15.55;6.92;;;;;;;-12.32;49.36;99164.20;1718511;83;21106;-43
2021/01/16 08:27:57;;;;;;;15.38;7.12;;;;;;;-12.08;48.83;99155.51;1718883;83;21135;-44
2021/01/16 08:30:28;;;;;;;14.23;6.75;;;;;;;-11.94;47.83;99159.56;1718504;83;21359;-44
2021/01/16 08:33:10;;;;;;;10.45;5.47;;;;;;;-11.95;47.29;99157.16;1718535;83;21170;-44
2021/01/16 08:35:45;;;;;;;15.53;7.08;;;;;;;-11.99;47.72;99163.34;1718567;83;21136;-44
2021/01/16 08:38:21;;;;;;;14.93;7.12;;;;;;;-12.04;47.81;99164.50;1717724;83;21118;-44
2021/01/16 08:40:54;;;;;;;15.53;7.30;;;;;;;-12.01;48.19;99154.14;1702487;83;21668;-44
2021/01/16 08:43:37;;;;;;;12.45;6.70;;;;;;;-11.86;48.16;99158.48;1690094;84;22241;-44
2021/01/16 08:46:12;;;;;;;12.18;5.75;;;;;;;-11.80;48.08;99159.40;1706904;83;21186;-44
2021/01/16 08:48:59;;;;;;;13.90;6.47;;;;;;;-11.78;47.56;99167.83;1718354;83;21178;-44
2021/01/16 08:51:33;;;;;;;15.70;6.53;;;;;;;-11.74;47.95;99169.78;1711506;83;21017;-45
2021/01/16 08:54:10;;;;;;;15.93;6.83;;;;;;;-11.62;47.89;99167.20;1690136;84;21610;-44
2021/01/16 08:56:39;;;;;;;14.60;6.67;;;;;;;-11.47;47.70;99174.92;1689942;84;21295;-44
2021/01/16 08:59:21;;;;;;;14.90;6.33;;;;;;;-11.27;47.74;99168.11;1689597;84;21152;-45
2021/01/16 09:01:53;;;;;;;12.00;5.75;;;;;;;-11.18;45.98;99172.54;1711243;83;21123;-44
2021/01/16 09:04:25;;;;;;;12.85;6.33;;;;;;;-11.18;46.03;99163.38;1691941;83;21216;-44
2021/01/16 09:06:56;;;;;;;17.20;7.25;;;;;;;-11.17;46.69;99163.14;1712951;83;21592;-45
2021/01/16 09:09:27;;;;;;;16.45;6.20;;;;;;;-11.14;46.09;99166.63;1663310;83;22250;-44
2021/01/16 09:12:11;;;;;;;10.40;6.00;;;;;;;-11.14;46.22;99156.17;1701310;83;21028;-44
2021/01/16 09:14:40;;;;;;;13.58;6.17;;;;;;;-11.09;47.04;99156.30;1685168;83;21190;-44
2021/01/16 09:17:22;;;;;;;16.05;7.30;;;;;;;-11.11;45.86;99159.64;1642985;85;21109;-43
2021/01/16 09:19:59;;;;;;;12.28;5.90;;;;;;;-11.12;46.71;99163.27;1684483;85;21188;-43
2021/01/16 09:22:31;;;;;;;13.65;6.50;;;;;;;-10.94;46.30;99165.03;1697521;83;21400;-44
2021/01/16 09:25:23;;;;;;;11.95;6.45;;;;;;;-10.82;45.92;99166.34;1684478;85;21123;-44
2021/01/16 09:27:54;;;;;;;12.43;6.35;;;;;;;-10.73;46.20;99159.74;1684574;85;21209;-43
2021/01/16 09:30:30;;;;;;;14.65;6.90;;;;;;;-10.65;45.96;99150.27;1705214;83;21190;-43
2021/01/16 09:32:59;;;;;;;10.05;6.22;;;;;;;-10.54;46.29;99151.27;1712288;83;21703;-43
2021/01/16 09:35:37;;;;;;;11.97;6.50;;;;;;;-10.31;46.82;99154.67;1662987;83;21632;-43
2021/01/16 09:38:18;;;;;;;12.98;5.85;;;;;;;-10.04;45.10;99142.36;1710007;83;21012;-44
2021/01/16 09:40:47;;;;;;;12.18;6.05;;;;;;;-9.86;45.07;99143.51;1711787;83;21160;-44
2021/01/16 09:43:20;;;;;;;11.10;5.45;;;;;;;-9.73;44.07;99144.58;1711964;83;21154;-44
2021/01/16 09:46:00;;;;;;;13.00;6.65;;;;;;;-9.84;44.23;99140.16;1713236;83;21159;-44
2021/01/16 09:48:42;;;;;;;14.40;6.37;;;;;;;-9.86;44.53;99136.95;1713707;83;22117;-44
2021/01/16 09:51:12;;;;;;;12.78;6.42;;;;;;;-9.80;44.39;99139.96;1708807;83;21150;-43
2021/01/16 09:53:42;;;;;;;11.93;5.03;;;;;;;-9.85;44.39;99147.22;1685027;83;21001;-43
2021/01/16 09:56:10;;;;;;;10.82;5.58;;;;;;;-9.82;44.36;99139.38;1684633;85;21788;-44
2021/01/16 09:58:40;;;;;;;12.85;5.83;;;;;;;-9.83;43.87;99143.06;1682387;83;21167;-44
2021/01/16 10:01:24;;;;;;;;;;;;;;;-9.86;44.25;99144.31;1718802;83;21415;-44
2021/01/16 10:03:53;;;;;;;12.43;6.20;;;;;;;-9.82;44.43;99147.25;1706104;83;20192;-44
2021/01/16 10:06:32;;;;;;;9.50;5.90;;;;;;;-9.76;44.30;99142.39;1717323;83;21176;-43
2021/01/16 10:09:01;;;;;;;12.47;6.47;;;;;;;-9.70;43.40;99144.09;1690131;84;21206;-44
2021/01/16 10:11:42;;;;;;;13.53;6.10;;;;;;;-9.73;43.96;99139.33;1680948;83;21134;-44
2021/01/16 10:14:18;;;;;;;10.95;5.97;;;;;;;-9.59;44.31;99128.84;1689986;83;21385;-44
2021/01/16 10:16:48;;;;;;;11.97;5.95;;;;;;;-9.59;43.06;99127.52;1689706;83;21061;-44
2021/01/16 10:19:17;;;;;;;14.33;5.78;;;;;;;-9.74;43.89;99124.10;1681766;85;21205;-45
2021/01/16 10:21:59;;;;;;;11.88;6.12;;;;;;;-9.72;44.07;99127.27;1702824;83;21167;-44
2021/01/16 10:24:28;;;;;;;8.28;4.78;;;;;;;-9.70;43.30;99125.73;1718874;83;21203;-44
2021/01/16 10:26:57;;;;;;;15.13;6.47;;;;;;;-9.77;43.19;99132.42;1719037;83;22293;-44
2021/01/16 10:29:40;;;;;;;7.87;4.77;;;;;;;-9.92;43.43;99124.80;1718953;83;21154;-44
2021/01/16 10:32:24;;;;;;;12.35;5.95;;;;;;;-9.98;43.48;99117.84;1716671;83;21098;-44
2021/01/16 10:34:57;;;;;;;14.18;6.65;;;;;;;-10.05;43.27;99114.55;1708841;83;21416;-44
2021/01/16 10:37:29;;;;;;;15.32;6.45;;;;;;;-10.06;44.00;99114.25;1665743;84;21626;-44
2021/01/16 10:39:58;;;;;;;11.05;5.62;;;;;;;-10.02;43.71;99111.48;1716389;83;21422;-44
2021/01/16 10:42:27;;;;;;;15.32;7.40;;;;;;;-10.05;44.01;99117.17;1686895;84;21127;-43
2021/01/16 10:45:01;;;;;;;14.33;6.47;;;;;;;-10.05;44.46;99122.41;1642737;84;21198;-43
2021/01/16 10:47:35;;;;;;;16.25;7.10;;;;;;;-10.10;44.39;99124.42;1693893;83;21178;-44
2021/01/16 10:50:17;;;;;;;13.53;6.12;;;;;;;-10.13;44.66;99119.14;1718999;83;21688;-44
2021/01/16 10:53:01;;;;;;;15.50;6.15;;;;;;;-10.15;44.34;99113.31;1696530;83;21037;-44
2021/01/16 10:55:56;;;;;;;15.03;6.95;;;;;;;-10.21;44.33;99110.33;1718886;83;21606;-44
2021/01/16 10:58:27;;;;;;;15.20;7.58;;;;;;;-10.06;45.11;99115.56;1718776;83;21174;-44
2021/01/16 11:00:57;;;;;;;;;;;;;;;-9.58;45.52;99115.20;1721061;83;21155;-44
2021/01/16 11:03:28;;;;;;;17.17;7.67;;;;;;;-9.26;44.12;99115.78;1690107;84;20258;-44
2021/01/16 11:06:07;;;;;;;17.45;8.15;;;;;;;-9.22;44.33;99114.78;1712446;83;22289;-44
2021/01/16 11:08:36;;;;;;;13.22;5.78;;;;;;;-9.08;44.50;99115.27;1690283;84;21593;-44
2021/01/16 11:11:25;;;;;;;11.27;6.13;;;;;;;-8.93;43.34;99120.77;1701173;83;21619;-44
2021/01/16 11:13:54;;;;;;;14.28;7.60;;;;;;;-8.81;43.70;99113.61;1716937;83;22389;-44
2021/01/16 11:16:23;;;;;;;26.17;9.65;;;;;;;-8.44;44.25;99112.56;1718511;83;21731;-44
2021/01/16 11:18:54;;;;;;;13.75;6.25;;;;;;;-8.13;42.59;99101.91;1718800;83;21376;-44
2021/01/16 11:21:48;;;;;;;15.03;7.53;;;;;;;-7.99;42.15;99108.39;1718020;83;21170;-44
2021/01/16 11:24:42;;;;;;;12.40;7.10;;;;;;;-7.88;41.94;99106.65;1718642;83;21031;-45
2021/01/16 11:27:11;;;;;;;11.12;6.15;;;;;;;-7.89;41.32;99103.25;1718770;83;21604;-44
2021/01/16 11:29:43;;;;;;;17.95;7.75;;;;;;;-7.92;40.96;99106.36;1716982;83;21146;-44
2021/01/16 11:32:17;;;;;;;17.80;7.92;;;;;;;-8.04;41.42;99108.33;1718031;83;21282;-44
2021/01/16 11:35:14;;;;;;;11.93;5.95;;;;;;;-8.12;41.79;99098.22;1717652;83;21206;-44
2021/01/16 11:37:54;;;;;;;16.40;7.62;;;;;;;-8.22;41.64;99106.77;1696923;83;21183;-44
2021/01/16 11:40:36;;;;;;;14.47;6.60;;;;;;;-8.40;41.49;99100.52;1697556;83;21150;-45
2021/01/16 11:43:09;;;;;;;11.80;5.60;;;;;;;-8.38;41.83;99099.77;1710470;83;21173;-44
2021/01/16 11:45:37;;;;;;;10.88;6.65;;;;;;;-8.31;41.70;99104.84;1690304;83;21390;-43
2021/01/16 11:48:08;;;;;;;11.95;6.45;;;;;;;-8.52;41.01;99109.81;1689865;84;21024;-44
2021/01/16 11:50:39;;;;;;;15.28;6.25;;;;;;;-8.76;41.74;99112.89;1686727;83;21048;-44